createdAt,value
2017-11-18T00:01:20.599Z,19.50
2017-11-18T00:03:48.912Z,19.50
2017-11-18T00:06:17.200Z,19.50
2017-11-18T00:08:45.552Z,19.50
2017-11-18T00:11:13.829Z,19.50
2017-11-18T00:13:42.155Z,19.40
2017-11-18T00:16:10.447Z,19.40
2017-11-18T00:18:38.953Z,19.40
2017-11-18T00:21:07.279Z,19.40
2017-11-18T00:23:36.461Z,19.40
2017-11-18T00:26:04.989Z,19.40
2017-11-18T00:28:33.362Z,19.40
2017-11-18T00:31:01.649Z,19.40
2017-11-18T00:33:29.940Z,19.30
2017-11-18T00:35:58.529Z,19.30
2017-11-18T00:38:26.805Z,19.30
2017-11-18T00:40:55.185Z,19.30
2017-11-18T00:43:23.602Z,19.30
2017-11-18T00:45:55.298Z,19.30
2017-11-18T00:48:23.703Z,19.30
2017-11-18T00:50:52.067Z,19.30
2017-11-18T00:53:20.430Z,19.30
2017-11-18T00:55:49.651Z,19.30
2017-11-18T00:58:17.977Z,19.30
2017-11-18T01:00:46.878Z,19.30
2017-11-18T01:03:15.267Z,19.30
2017-11-18T01:05:43.591Z,19.30
2017-11-18T01:08:11.936Z,19.30
2017-11-18T01:10:40.216Z,19.30
2017-11-18T01:13:08.591Z,19.30
2017-11-18T01:15:36.873Z,19.20
2017-11-18T01:18:05.138Z,19.20
2017-11-18T01:20:33.522Z,19.20
2017-11-18T01:23:01.814Z,19.20
2017-11-18T01:25:30.092Z,19.20
2017-11-18T01:27:59.156Z,19.20
2017-11-18T01:30:27.500Z,19.20
2017-11-18T01:32:55.828Z,19.20
2017-11-18T01:35:24.154Z,19.20
2017-11-18T01:37:52.441Z,19.20
2017-11-18T01:40:20.775Z,19.20
2017-11-18T01:42:49.119Z,19.20
2017-11-18T01:45:17.434Z,19.20
2017-11-18T01:47:46.525Z,19.20
2017-11-18T01:50:15.673Z,19.20
2017-11-18T01:52:43.985Z,19.20
2017-11-18T01:55:12.298Z,19.20
2017-11-18T01:57:40.801Z,19.20
2017-11-18T02:00:09.087Z,19.20
2017-11-18T02:02:47.112Z,19.20
2017-11-18T02:05:15.489Z,19.10
2017-11-18T02:07:43.796Z,19.10
2017-11-18T02:10:12.890Z,19.10
2017-11-18T02:12:41.166Z,19.10
2017-11-18T02:15:10.265Z,19.10
2017-11-18T02:17:38.604Z,19.10
2017-11-18T02:20:07.482Z,19.10
2017-11-18T02:22:35.771Z,19.10
2017-11-18T02:25:04.089Z,19.10
2017-11-18T02:27:32.471Z,19.10
2017-11-18T02:30:01.284Z,19.10
2017-11-18T02:32:29.640Z,19.10
2017-11-18T02:34:57.762Z,19.10
2017-11-18T02:37:26.208Z,19.10
2017-11-18T02:39:54.703Z,19.10
2017-11-18T02:42:22.990Z,19.10
2017-11-18T02:44:51.309Z,19.10
2017-11-18T02:47:19.397Z,19.10
2017-11-18T02:49:48.509Z,19.10
2017-11-18T02:52:18.276Z,19.10
2017-11-18T02:54:46.555Z,19.00
2017-11-18T02:57:14.871Z,19.10
2017-11-18T02:59:43.161Z,19.10
2017-11-18T03:02:11.441Z,19.10
2017-11-18T03:04:39.754Z,19.10
2017-11-18T03:07:08.040Z,19.00
2017-11-18T03:09:36.334Z,19.00
2017-11-18T03:12:04.743Z,19.00
2017-11-18T03:14:34.076Z,19.00
2017-11-18T03:17:03.961Z,19.00
2017-11-18T03:19:32.286Z,19.00
2017-11-18T03:22:00.581Z,19.00
2017-11-18T03:24:28.904Z,19.00
2017-11-18T03:26:57.184Z,19.00
2017-11-18T03:29:25.533Z,19.00
2017-11-18T03:31:54.567Z,19.00
2017-11-18T03:34:22.958Z,19.00
2017-11-18T03:36:52.085Z,19.00
2017-11-18T03:39:21.165Z,19.00
2017-11-18T03:41:50.313Z,19.00
2017-11-18T03:44:18.626Z,19.00
2017-11-18T03:46:46.944Z,19.00
2017-11-18T03:49:16.026Z,19.00
2017-11-18T03:51:44.337Z,19.00
2017-11-18T03:54:12.611Z,19.00
2017-11-18T03:56:41.660Z,19.00
2017-11-18T03:59:10.029Z,19.00
2017-11-18T04:01:38.424Z,19.00
2017-11-18T04:04:07.567Z,19.00
2017-11-18T04:06:35.976Z,19.00
2017-11-18T04:09:04.097Z,19.00
2017-11-18T04:11:32.449Z,19.00
2017-11-18T04:14:01.607Z,19.00
2017-11-18T04:16:29.966Z,18.90
2017-11-18T04:18:58.631Z,18.90
2017-11-18T04:21:26.964Z,18.90
2017-11-18T04:23:55.290Z,18.90
2017-11-18T04:26:23.633Z,18.90
2017-11-18T04:28:52.040Z,18.90
2017-11-18T04:31:20.346Z,18.90
2017-11-18T04:33:49.558Z,18.90
2017-11-18T04:36:18.512Z,18.90
2017-11-18T04:38:47.612Z,18.90
2017-11-18T04:41:16.555Z,18.90
2017-11-18T04:43:44.959Z,18.90
2017-11-18T04:46:13.852Z,18.90
2017-11-18T04:48:42.171Z,18.90
2017-11-18T04:51:10.608Z,18.90
2017-11-18T04:53:39.789Z,18.90
2017-11-18T04:56:08.289Z,18.90
2017-11-18T04:58:37.527Z,18.90
2017-11-18T05:01:05.867Z,18.90
2017-11-18T05:03:34.186Z,18.90
2017-11-18T05:06:02.540Z,18.90
2017-11-18T05:08:32.348Z,18.90
2017-11-18T05:11:01.461Z,18.90
2017-11-18T05:13:29.799Z,18.90
2017-11-18T05:15:58.138Z,18.90
2017-11-18T05:18:26.462Z,18.90
2017-11-18T05:20:55.590Z,18.90
2017-11-18T05:23:24.646Z,18.90
2017-11-18T05:25:52.998Z,18.90
2017-11-18T05:28:21.348Z,18.90
2017-11-18T05:30:49.633Z,18.90
2017-11-18T05:33:17.898Z,18.90
2017-11-18T05:35:46.986Z,18.90
2017-11-18T05:38:14.922Z,18.80
2017-11-18T05:40:43.948Z,18.90
2017-11-18T05:43:12.252Z,18.80
2017-11-18T05:45:40.875Z,18.90
2017-11-18T05:48:09.281Z,18.90
2017-11-18T05:50:39.083Z,18.80
2017-11-18T05:53:07.383Z,18.80
2017-11-18T05:55:36.520Z,18.80
2017-11-18T05:58:04.871Z,18.90
2017-11-18T06:00:33.993Z,18.90
2017-11-18T06:03:02.351Z,18.80
2017-11-18T06:05:30.833Z,18.80
2017-11-18T06:07:59.225Z,18.80
2017-11-18T06:10:27.540Z,18.80
2017-11-18T06:12:55.865Z,18.80
2017-11-18T06:15:24.221Z,18.80
2017-11-18T06:17:53.317Z,18.80
2017-11-18T06:20:21.636Z,18.80
2017-11-18T06:22:49.973Z,18.80
2017-11-18T06:25:19.117Z,18.80
2017-11-18T06:27:47.433Z,18.80
2017-11-18T06:30:15.781Z,18.80
2017-11-18T06:32:44.115Z,18.80
2017-11-18T06:35:12.464Z,18.80
2017-11-18T06:37:40.828Z,18.80
2017-11-18T06:40:09.193Z,18.80
2017-11-18T06:42:37.538Z,18.80
2017-11-18T06:45:05.881Z,18.80
2017-11-18T06:47:34.218Z,18.80
2017-11-18T06:50:02.593Z,18.80
2017-11-18T06:52:30.944Z,18.80
2017-11-18T06:55:00.070Z,18.70
2017-11-18T06:57:28.511Z,18.70
2017-11-18T06:59:57.616Z,18.70
2017-11-18T07:02:26.716Z,18.80
2017-11-18T07:04:55.024Z,18.70
2017-11-18T07:07:23.499Z,18.70
2017-11-18T07:09:51.815Z,18.80
2017-11-18T07:12:20.255Z,18.80
2017-11-18T07:14:48.550Z,18.80
2017-11-18T07:17:16.881Z,18.80
2017-11-18T07:19:45.230Z,18.80
2017-11-18T07:22:13.538Z,18.80
2017-11-18T07:24:44.167Z,18.80
2017-11-18T07:27:12.475Z,18.80
2017-11-18T07:29:40.746Z,18.80
2017-11-18T07:32:09.101Z,18.80
2017-11-18T07:34:37.457Z,18.80
2017-11-18T07:37:06.027Z,18.90
2017-11-18T07:39:34.362Z,18.80
2017-11-18T07:42:03.440Z,18.80
2017-11-18T07:44:31.815Z,18.80
2017-11-18T07:47:00.148Z,18.80
2017-11-18T07:49:28.465Z,18.80
2017-11-18T07:51:56.773Z,18.80
2017-11-18T07:54:26.413Z,18.80
2017-11-18T07:56:54.796Z,18.80
2017-11-18T07:59:23.090Z,18.80
2017-11-18T08:01:51.462Z,18.80
2017-11-18T08:04:19.861Z,18.70
2017-11-18T08:06:49.104Z,18.80
2017-11-18T08:09:20.950Z,18.80
2017-11-18T08:11:51.419Z,18.80
2017-11-18T08:14:19.752Z,18.80
2017-11-18T08:19:34.786Z,18.80
2017-11-18T08:22:03.313Z,18.80
2017-11-18T08:24:32.493Z,18.80
2017-11-18T08:27:00.820Z,18.80
2017-11-18T08:29:29.137Z,18.80
2017-11-18T08:31:57.448Z,18.80
2017-11-18T08:34:25.813Z,18.70
2017-11-18T08:36:54.923Z,18.80
2017-11-18T08:39:23.335Z,18.70
2017-11-18T08:41:51.680Z,18.80
2017-11-18T08:44:20.062Z,18.80
2017-11-18T08:46:49.144Z,18.70
2017-11-18T08:49:17.692Z,18.70
2017-11-18T08:51:46.036Z,18.80
2017-11-18T08:54:14.476Z,18.70
2017-11-18T08:56:42.877Z,18.70
2017-11-18T08:59:11.234Z,18.70
2017-11-18T09:01:39.556Z,18.70
2017-11-18T09:04:07.854Z,18.70
2017-11-18T09:06:36.183Z,18.70
2017-11-18T09:09:04.780Z,18.80
2017-11-18T09:11:33.078Z,18.80
2017-11-18T09:14:01.395Z,18.80
2017-11-18T09:16:30.511Z,18.80
2017-11-18T09:18:58.875Z,18.80
2017-11-18T09:21:27.124Z,18.90
2017-11-18T09:23:55.476Z,18.90
2017-11-18T09:26:23.769Z,18.90
2017-11-18T09:28:53.231Z,18.90
2017-11-18T09:31:22.345Z,18.90
2017-11-18T09:33:50.723Z,18.90
2017-11-18T09:36:19.466Z,18.90
2017-11-18T09:38:47.791Z,18.90
2017-11-18T09:41:16.190Z,18.90
2017-11-18T09:43:44.616Z,18.90
2017-11-18T09:46:14.173Z,18.90
2017-11-18T09:48:42.553Z,18.90
2017-11-18T09:51:10.899Z,18.90
2017-11-18T09:53:39.277Z,18.90
2017-11-18T09:56:08.376Z,18.90
2017-11-18T09:58:37.274Z,18.90
2017-11-18T10:01:05.674Z,18.90
2017-11-18T10:03:34.007Z,18.90
2017-11-18T10:06:02.298Z,18.90
2017-11-18T10:08:31.393Z,18.90
2017-11-18T10:11:00.284Z,18.90
2017-11-18T10:13:28.684Z,18.90
2017-11-18T10:15:57.071Z,18.90
2017-11-18T10:18:25.398Z,18.90
2017-11-18T10:20:53.691Z,19.00
2017-11-18T10:23:22.692Z,19.00
2017-11-18T10:25:50.966Z,19.00
2017-11-18T10:28:20.041Z,19.00
2017-11-18T10:30:48.678Z,18.90
2017-11-18T10:33:17.003Z,18.90
2017-11-18T10:35:46.301Z,19.00
2017-11-18T10:38:14.647Z,19.00
2017-11-18T10:40:43.039Z,19.00
2017-11-18T10:43:11.366Z,19.00
2017-11-18T10:45:39.747Z,19.00
2017-11-18T10:48:08.113Z,19.00
2017-11-18T10:50:37.198Z,19.00
2017-11-18T10:53:06.324Z,19.00
2017-11-18T10:55:34.683Z,19.00
2017-11-18T10:58:03.372Z,19.00
2017-11-18T11:00:31.748Z,19.00
2017-11-18T11:03:00.047Z,19.00
2017-11-18T11:05:28.330Z,19.00
2017-11-18T11:07:56.683Z,19.00
2017-11-18T11:10:25.034Z,19.00
2017-11-18T11:12:53.377Z,19.00
2017-11-18T11:15:21.750Z,19.00
2017-11-18T11:17:50.914Z,19.10
2017-11-18T11:20:21.706Z,19.10
2017-11-18T11:22:50.094Z,19.10
2017-11-18T11:25:19.992Z,19.10
2017-11-18T11:27:48.161Z,19.10
2017-11-18T11:30:18.745Z,19.10
2017-11-18T11:32:49.875Z,19.10
2017-11-18T11:35:18.410Z,19.00
2017-11-18T11:37:46.931Z,19.00
2017-11-18T11:40:15.338Z,19.00
2017-11-18T11:42:43.877Z,19.00
2017-11-18T11:45:12.184Z,18.50
2017-11-18T11:47:40.904Z,17.40
2017-11-18T11:50:09.938Z,16.50
2017-11-18T11:52:38.290Z,16.50
2017-11-18T11:55:06.475Z,16.20
2017-11-18T11:57:34.933Z,16.00
2017-11-18T12:00:03.289Z,15.90
2017-11-18T12:02:31.630Z,15.70
2017-11-18T12:05:00.999Z,15.60
2017-11-18T12:07:29.356Z,15.50
2017-11-18T12:09:58.602Z,15.40
2017-11-18T12:12:27.672Z,15.40
2017-11-18T12:14:56.127Z,15.40
2017-11-18T12:17:24.245Z,15.30
2017-11-18T12:19:52.603Z,15.30
2017-11-18T12:22:21.014Z,15.30
2017-11-18T12:24:49.369Z,15.30
2017-11-18T12:27:17.669Z,15.20
2017-11-18T12:29:46.089Z,15.10
2017-11-18T12:32:15.245Z,15.70
2017-11-18T12:34:43.688Z,15.60
2017-11-18T12:37:12.015Z,16.20
2017-11-18T12:39:40.315Z,16.70
2017-11-18T12:42:08.716Z,17.00
2017-11-18T12:44:37.025Z,17.30
2017-11-18T12:47:05.429Z,17.40
2017-11-18T12:49:33.740Z,17.60
2017-11-18T12:52:02.059Z,17.70
2017-11-18T12:54:33.529Z,17.80
2017-11-18T12:57:01.798Z,17.90
2017-11-18T12:59:30.088Z,17.90
2017-11-18T13:01:58.411Z,18.00
2017-11-18T13:04:27.511Z,18.10
2017-11-18T13:06:56.556Z,18.20
2017-11-18T13:09:25.232Z,18.20
2017-11-18T13:11:53.510Z,18.20
2017-11-18T13:14:21.957Z,18.30
2017-11-18T13:16:50.268Z,18.40
2017-11-18T13:19:18.756Z,18.50
2017-11-18T13:21:47.211Z,18.50
2017-11-18T13:24:15.487Z,18.50
2017-11-18T13:26:43.704Z,18.50
2017-11-18T13:29:12.006Z,18.60
2017-11-18T13:31:41.101Z,18.70
2017-11-18T13:34:09.534Z,18.70
2017-11-18T13:36:37.893Z,18.80
2017-11-18T13:39:06.288Z,18.90
2017-11-18T13:41:34.693Z,18.90
2017-11-18T13:44:03.038Z,18.80
2017-11-18T13:46:32.641Z,18.80
2017-11-18T13:49:00.984Z,18.80
2017-11-18T13:51:29.973Z,18.80
2017-11-18T13:53:58.302Z,18.90
2017-11-18T13:56:26.583Z,19.00
2017-11-18T13:58:54.916Z,18.90
2017-11-18T14:01:24.034Z,19.00
2017-11-18T14:03:52.362Z,19.00
2017-11-18T14:06:20.711Z,19.00
2017-11-18T14:08:48.984Z,19.00
2017-11-18T14:11:17.286Z,19.00
2017-11-18T14:13:45.606Z,19.00
2017-11-18T14:16:13.919Z,19.00
2017-11-18T14:18:42.848Z,19.10
2017-11-18T14:21:11.358Z,19.10
2017-11-18T14:23:39.721Z,19.10
2017-11-18T14:26:08.792Z,19.20
2017-11-18T14:28:37.213Z,19.20
2017-11-18T14:31:05.524Z,19.20
2017-11-18T14:33:33.648Z,19.20
2017-11-18T14:36:01.941Z,19.20
2017-11-18T14:38:31.000Z,19.30
2017-11-18T14:40:59.317Z,19.30
2017-11-18T14:43:27.625Z,19.30
2017-11-18T14:45:55.937Z,19.20
2017-11-18T14:48:24.260Z,19.30
2017-11-18T14:50:52.772Z,19.30
2017-11-18T14:53:21.132Z,19.30
2017-11-18T14:55:49.307Z,19.30
2017-11-18T14:58:17.450Z,19.30
2017-11-18T15:00:45.594Z,19.30
2017-11-18T15:03:13.714Z,19.30
2017-11-18T15:05:41.846Z,19.30
2017-11-18T15:08:10.068Z,19.40
2017-11-18T15:10:38.187Z,19.40
2017-11-18T15:13:06.346Z,19.40
2017-11-18T15:15:34.608Z,19.40
2017-11-18T15:18:08.346Z,19.30
2017-11-18T15:20:42.066Z,19.40
2017-11-18T15:23:17.798Z,19.40
2017-11-18T15:25:51.504Z,19.40
2017-11-18T15:28:25.379Z,19.40
2017-11-18T15:30:59.239Z,19.50
2017-11-18T15:33:30.764Z,19.60
2017-11-18T15:35:59.324Z,19.50
2017-11-18T15:38:27.547Z,19.50
2017-11-18T15:40:56.445Z,19.50
2017-11-18T15:43:28.793Z,19.50
2017-11-18T15:45:57.246Z,19.50
2017-11-18T15:51:31.605Z,19.60
2017-11-18T15:54:05.274Z,19.50
2017-11-18T15:59:38.200Z,19.50
2017-11-18T16:02:11.895Z,19.60
2017-11-18T16:04:40.858Z,19.70
2017-11-18T16:07:10.452Z,19.70
2017-11-18T16:09:38.690Z,19.70
2017-11-18T16:12:07.355Z,19.60
2017-11-18T16:14:36.398Z,19.60
2017-11-18T16:17:05.488Z,19.60
2017-11-18T16:19:33.841Z,19.60
2017-11-18T16:22:02.147Z,19.70
2017-11-18T16:24:30.492Z,19.70
2017-11-18T16:26:58.595Z,19.70
2017-11-18T16:29:26.884Z,19.70
2017-11-18T16:31:55.223Z,19.80
2017-11-18T16:34:23.573Z,19.80
2017-11-18T16:36:51.851Z,19.80
2017-11-18T16:39:20.178Z,19.80
2017-11-18T16:41:48.470Z,19.80
2017-11-18T16:44:17.046Z,19.80
2017-11-18T16:46:45.369Z,19.90
2017-11-18T16:49:15.153Z,19.80
2017-11-18T16:51:44.197Z,19.80
2017-11-18T16:54:12.610Z,19.80
2017-11-18T16:56:41.024Z,19.80
2017-11-18T16:59:09.361Z,19.90
2017-11-18T17:01:37.739Z,19.90
2017-11-18T17:04:06.165Z,19.90
2017-11-18T17:06:34.514Z,19.90
2017-11-18T17:09:03.367Z,19.90
2017-11-18T17:11:31.706Z,20.00
2017-11-18T17:14:00.029Z,20.00
2017-11-18T17:16:28.318Z,20.00
2017-11-18T17:18:56.706Z,20.00
2017-11-18T17:21:24.973Z,20.10
2017-11-18T17:23:54.105Z,20.10
2017-11-18T17:26:23.161Z,20.10
2017-11-18T17:28:51.679Z,20.10
2017-11-18T17:31:21.099Z,20.10
2017-11-18T17:33:48.914Z,20.20
2017-11-18T17:36:17.347Z,20.00
2017-11-18T17:38:45.681Z,19.90
2017-11-18T17:41:13.550Z,19.90
2017-11-18T17:43:41.398Z,19.90
2017-11-18T17:46:09.726Z,19.90
2017-11-18T17:48:38.763Z,19.90
2017-11-18T17:51:07.446Z,19.90
2017-11-18T17:53:37.584Z,19.90
2017-11-18T17:56:06.569Z,19.90
2017-11-18T17:58:34.930Z,19.90
2017-11-18T18:01:03.200Z,19.90
2017-11-18T18:03:32.312Z,19.90
2017-11-18T18:06:02.905Z,19.90
2017-11-18T18:08:32.013Z,19.90
2017-11-18T18:11:00.297Z,19.90
2017-11-18T18:13:29.168Z,19.90
2017-11-18T18:16:00.253Z,19.90
2017-11-18T18:18:30.125Z,20.00
2017-11-18T18:21:00.442Z,20.00
2017-11-18T18:23:31.677Z,20.00
2017-11-18T18:26:01.942Z,20.00
2017-11-18T18:28:31.299Z,19.90
2017-11-18T18:31:00.982Z,20.00
2017-11-18T18:33:29.545Z,20.00
2017-11-18T18:35:59.905Z,20.00
2017-11-18T18:38:33.369Z,20.00
2017-11-18T18:41:03.191Z,20.00
2017-11-18T18:43:31.640Z,20.00
2017-11-18T18:46:00.208Z,19.90
2017-11-18T18:48:28.698Z,19.90
2017-11-18T18:50:57.052Z,20.00
2017-11-18T18:53:25.656Z,19.90
2017-11-18T18:55:54.806Z,19.80
2017-11-18T18:58:23.157Z,19.80
2017-11-18T19:00:51.541Z,19.80
2017-11-18T19:03:20.425Z,19.80
2017-11-18T19:05:48.810Z,19.80
2017-11-18T19:08:17.191Z,19.70
2017-11-18T19:10:45.458Z,19.70
2017-11-18T19:13:14.484Z,19.70
2017-11-18T19:15:43.209Z,19.70
2017-11-18T19:18:11.599Z,19.60
2017-11-18T19:20:39.881Z,19.60
2017-11-18T19:23:08.158Z,19.60
2017-11-18T19:25:38.412Z,19.60
2017-11-18T19:28:09.949Z,19.50
2017-11-18T19:30:39.327Z,19.60
2017-11-18T19:33:07.644Z,19.50
2017-11-18T19:35:36.772Z,19.50
2017-11-18T19:38:05.048Z,19.50
2017-11-18T19:40:34.171Z,19.40
2017-11-18T19:43:02.657Z,19.40
2017-11-18T19:45:31.179Z,19.40
2017-11-18T19:48:00.244Z,19.30
2017-11-18T19:50:28.601Z,19.30
2017-11-18T19:52:58.027Z,19.30
2017-11-18T19:55:26.383Z,19.30
2017-11-18T19:57:55.450Z,19.30
2017-11-18T20:00:24.620Z,19.30
2017-11-18T20:02:54.691Z,19.30
2017-11-18T20:05:23.089Z,19.30
2017-11-18T20:07:51.429Z,19.20
2017-11-18T20:10:19.288Z,19.20
2017-11-18T20:12:47.665Z,19.20
2017-11-18T20:15:15.994Z,19.20
2017-11-18T20:17:44.321Z,19.20
2017-11-18T20:20:12.684Z,19.20
2017-11-18T20:22:41.134Z,19.20
2017-11-18T20:25:09.415Z,19.10
2017-11-18T20:27:37.757Z,19.10
2017-11-18T20:30:06.565Z,19.10
2017-11-18T20:32:34.953Z,19.10
2017-11-18T20:35:03.231Z,19.10
2017-11-18T20:37:32.192Z,19.00
2017-11-18T20:40:00.566Z,19.10
2017-11-18T20:42:28.888Z,19.00
2017-11-18T20:44:57.223Z,19.00
2017-11-18T20:47:25.552Z,19.00
2017-11-18T20:49:53.897Z,19.00
2017-11-18T20:52:22.228Z,18.90
2017-11-18T20:54:50.506Z,18.90
2017-11-18T20:57:18.820Z,18.90
2017-11-18T20:59:48.289Z,18.90
2017-11-18T21:02:17.521Z,18.90
2017-11-18T21:04:46.010Z,18.80
2017-11-18T21:07:14.364Z,18.90
2017-11-18T21:09:42.678Z,18.90
2017-11-18T21:12:11.012Z,18.90
2017-11-18T21:14:39.523Z,18.80
2017-11-18T21:17:07.964Z,18.80
2017-11-18T21:19:36.310Z,18.80
2017-11-18T21:22:05.605Z,18.80
2017-11-18T21:24:33.959Z,18.80
2017-11-18T21:27:02.264Z,18.80
2017-11-18T21:29:30.651Z,18.80
2017-11-18T21:31:58.977Z,18.80
2017-11-18T21:34:27.257Z,18.80
2017-11-18T21:36:55.600Z,18.70
2017-11-18T21:39:23.899Z,18.70
2017-11-18T21:41:52.188Z,18.70
2017-11-18T21:44:20.523Z,18.70
2017-11-18T21:46:48.810Z,18.70
2017-11-18T21:49:17.151Z,18.70
2017-11-18T21:51:46.183Z,18.70
2017-11-18T21:54:14.502Z,18.60
2017-11-18T21:56:42.817Z,18.70
2017-11-18T21:59:11.701Z,18.60
2017-11-18T22:01:40.037Z,18.60
2017-11-18T22:04:08.312Z,18.70
2017-11-18T22:06:36.450Z,18.70
2017-11-18T22:09:04.293Z,18.70
2017-11-18T22:11:33.332Z,18.60
2017-11-18T22:14:01.632Z,18.60
2017-11-18T22:16:29.972Z,18.60
2017-11-18T22:18:58.536Z,18.60
2017-11-18T22:21:26.870Z,18.60
2017-11-18T22:23:55.180Z,18.50
2017-11-18T22:26:23.458Z,18.50
2017-11-18T22:28:52.492Z,18.50
2017-11-18T22:31:20.778Z,18.60
2017-11-18T22:33:49.034Z,18.50
2017-11-18T22:36:17.344Z,18.50
2017-11-18T22:38:45.664Z,18.50
2017-11-18T22:41:14.319Z,18.40
2017-11-18T22:43:42.642Z,18.50
2017-11-18T22:46:10.939Z,18.50
2017-11-18T22:48:39.287Z,18.50
2017-11-18T22:51:07.610Z,18.50
2017-11-18T22:53:35.960Z,18.40
2017-11-18T22:56:04.273Z,18.40
2017-11-18T22:58:34.036Z,18.40
2017-11-18T23:01:02.379Z,18.40
2017-11-18T23:03:30.717Z,18.50
2017-11-18T23:05:59.334Z,18.40
2017-11-18T23:08:29.142Z,18.30
2017-11-18T23:10:57.468Z,18.40
2017-11-18T23:13:25.747Z,18.30
2017-11-18T23:15:54.091Z,18.30
2017-11-18T23:18:22.612Z,18.30
2017-11-18T23:20:50.909Z,18.30
2017-11-18T23:23:19.245Z,18.30
2017-11-18T23:25:47.555Z,18.30
2017-11-18T23:28:15.933Z,18.20
2017-11-18T23:30:44.787Z,18.20
2017-11-18T23:33:13.100Z,18.30
2017-11-18T23:35:41.549Z,18.30
2017-11-18T23:38:10.562Z,18.30
2017-11-18T23:40:38.959Z,18.30
2017-11-18T23:43:07.299Z,18.30
2017-11-18T23:45:35.583Z,18.20
2017-11-18T23:48:04.656Z,18.20
2017-11-18T23:50:32.973Z,18.30
2017-11-18T23:53:01.479Z,18.30
2017-11-18T23:55:29.756Z,18.30
2017-11-18T23:57:58.049Z,18.30
